Time;durP1;ratioP1;P1;durP2;ratioP2;P2;SDS_P1;SDS_P2;PMS_P1;PMS_P2;Temp;Humidity;BMP_temperature;BMP_pressure;BME280_temperature;BME280_humidity;BME280_pressure;Samples;Min_cycle;Max_cycle;Signal;HPM_P1;HPM_P2
2022/11/02 00:01:22;;;;;;;6.53;1.53;;;12.70;99.90;;;;;;5036462;28;20555;-42
2022/11/02 00:03:48;;;;;;;8.98;1.77;;;12.80;99.90;;;;;;5055861;28;20276;-42
2022/11/02 00:06:15;;;;;;;12.57;1.90;;;12.70;99.90;;;;;;5053595;28;20045;-42
2022/11/02 00:08:42;;;;;;;8.02;1.65;;;12.60;99.90;;;;;;5054978;28;20099;-41
2022/11/02 00:11:10;;;;;;;9.55;1.85;;;12.60;99.90;;;;;;5054732;28;20080;-40
2022/11/02 00:13:37;;;;;;;8.45;1.60;;;12.60;99.90;;;;;;5055126;28;20045;-41
2022/11/02 00:16:04;;;;;;;9.38;1.70;;;12.50;99.90;;;;;;5052381;28;20103;-41
2022/11/02 00:18:31;;;;;;;11.10;2.15;;;12.60;99.90;;;;;;5044937;28;20520;-41
2022/11/02 00:20:58;;;;;;;10.93;1.50;;;12.50;99.90;;;;;;5054834;28;20533;-44
2022/11/02 00:23:25;;;;;;;14.63;2.13;;;12.50;99.90;;;;;;5051124;28;20717;-44
2022/11/02 00:25:52;;;;;;;10.40;2.10;;;12.50;99.90;;;;;;5035183;28;20049;-44
2022/11/02 00:28:20;;;;;;;8.60;1.50;;;12.50;99.90;;;;;;5032648;28;20114;-44
2022/11/02 00:30:47;;;;;;;10.20;1.83;;;12.50;99.90;;;;;;5022432;28;20506;-43
2022/11/02 00:33:13;;;;;;;7.90;1.42;;;12.50;99.90;;;;;;5033770;28;20099;-42
2022/11/02 00:35:40;;;;;;;7.78;1.50;;;12.50;99.90;;;;;;5052413;28;20052;-42
2022/11/02 00:38:07;;;;;;;4.82;1.40;;;12.50;99.90;;;;;;5033516;28;20083;-42
2022/11/02 00:40:34;;;;;;;7.82;1.83;;;12.50;99.90;;;;;;5052930;28;20045;-43
2022/11/02 00:43:01;;;;;;;8.63;1.50;;;12.50;99.90;;;;;;5053273;28;20080;-42
2022/11/02 00:45:29;;;;;;;12.60;1.83;;;12.60;99.90;;;;;;5053043;28;20094;-43
2022/11/02 00:47:55;;;;;;;13.90;2.38;;;12.60;99.90;;;;;;5050083;28;20118;-64
2022/11/02 00:50:22;;;;;;;16.25;2.60;;;12.50;99.90;;;;;;5053593;28;20111;-60
2022/11/02 00:52:49;;;;;;;14.05;2.30;;;12.60;99.90;;;;;;5035342;28;20558;-47
2022/11/02 00:55:16;;;;;;;9.25;1.63;;;12.60;99.90;;;;;;5052496;28;20049;-47
2022/11/02 00:57:44;;;;;;;10.73;1.70;;;12.50;99.90;;;;;;5034900;28;20045;-46
2022/11/02 01:00:11;;;;;;;9.82;2.13;;;12.50;99.90;;;;;;5052506;28;20056;-46
2022/11/02 01:02:39;;;;;;;8.60;1.98;;;12.50;99.90;;;;;;5026773;28;20551;-43
2022/11/02 01:05:07;;;;;;;11.20;1.90;;;12.50;99.90;;;;;;5048906;28;20142;-46
2022/11/02 01:07:34;;;;;;;9.10;1.67;;;12.50;99.90;;;;;;5053506;28;20504;-46
2022/11/02 01:10:01;;;;;;;11.30;2.00;;;12.50;99.90;;;;;;5052745;28;20505;-57
2022/11/02 01:12:27;;;;;;;13.90;2.28;;;12.50;99.90;;;;;;5033666;28;20126;-55
2022/11/02 01:14:54;;;;;;;9.13;1.50;;;12.50;99.90;;;;;;5049878;28;20132;-45
2022/11/02 01:17:21;;;;;;;7.18;1.52;;;12.40;99.90;;;;;;5036316;28;20065;-47
2022/11/02 01:19:49;;;;;;;11.68;2.15;;;12.40;99.90;;;;;;5047794;28;20049;-46
2022/11/02 01:22:16;;;;;;;14.20;2.25;;;12.40;99.90;;;;;;5043271;28;20045;-47
2022/11/02 01:24:43;;;;;;;14.23;2.42;;;12.30;99.90;;;;;;5034493;28;20079;-46
2022/11/02 01:27:10;;;;;;;11.63;2.38;;;12.30;99.90;;;;;;5025911;28;20076;-46
2022/11/02 01:29:36;;;;;;;12.13;2.22;;;12.30;99.90;;;;;;5051584;28;20546;-47
2022/11/02 01:32:03;;;;;;;10.23;1.95;;;12.20;99.90;;;;;;5052075;28;20561;-47
2022/11/02 01:34:30;;;;;;;14.45;3.05;;;12.20;99.90;;;;;;5048428;28;20098;-47
2022/11/02 01:36:58;;;;;;;15.20;3.00;;;12.20;99.90;;;;;;5053824;28;20131;-46
2022/11/02 01:39:25;;;;;;;11.65;2.00;;;12.20;99.90;;;;;;5052442;28;20512;-45
2022/11/02 01:41:52;;;;;;;13.05;2.97;;;12.20;99.90;;;;;;5034205;28;20489;-45
2022/11/02 01:44:27;;;;;;;16.15;2.75;;;12.20;99.90;;;;;;5052662;28;20123;-47
2022/11/02 01:46:55;;;;;;;14.25;2.53;;;12.20;99.90;;;;;;5051399;28;20053;-44
2022/11/02 01:49:21;;;;;;;12.27;2.40;;;12.10;99.90;;;;;;5034913;28;20478;-46
2022/11/02 01:51:50;;;;;;;18.08;2.63;;;12.20;99.90;;;;;;5032287;28;20127;-44
2022/11/02 01:54:25;;;;;;;18.08;2.72;;;12.10;99.90;;;;;;5050048;28;20069;-46
2022/11/02 01:56:56;;;;;;;21.05;2.50;;;12.10;99.90;;;;;;5048894;28;20090;-45
2022/11/02 01:59:25;;;;;;;21.53;4.17;;;12.10;99.90;;;;;;5048706;28;20103;-45
2022/11/02 02:01:51;;;;;;;14.07;2.80;;;12.10;99.90;;;;;;5032238;28;20439;-45
2022/11/02 02:04:18;;;;;;;14.68;2.53;;;12.10;99.90;;;;;;5049356;28;20049;-44
2022/11/02 02:06:45;;;;;;;14.43;2.70;;;12.10;99.90;;;;;;5034298;28;20084;-48
2022/11/02 02:09:12;;;;;;;14.57;2.63;;;12.10;99.90;;;;;;5034763;28;20458;-46
2022/11/02 02:11:40;;;;;;;14.80;2.70;;;12.20;99.90;;;;;;5033967;28;20049;-46
2022/11/02 02:14:09;;;;;;;14.20;2.70;;;12.10;99.90;;;;;;5051452;28;20049;-45
2022/11/02 02:16:49;;;;;;;14.27;2.50;;;12.10;99.90;;;;;;5019981;28;20103;-45
2022/11/02 02:19:24;;;;;;;15.10;2.97;;;12.20;99.90;;;;;;5021976;28;20080;-45
2022/11/02 02:21:56;;;;;;;10.75;2.30;;;12.20;99.90;;;;;;5020161;28;20490;-47
2022/11/02 02:24:36;;;;;;;11.80;2.70;;;12.20;99.90;;;;;;5052529;28;20049;-48
2022/11/02 02:27:10;;;;;;;12.45;2.58;;;12.20;99.90;;;;;;5052140;28;20923;-46
2022/11/02 02:30:00;;;;;;;17.30;2.75;;;12.20;99.90;;;;;;5034454;28;20049;-44
2022/11/02 02:32:30;;;;;;;12.27;2.38;;;12.20;99.90;;;;;;5030787;28;20105;-44
2022/11/02 02:34:58;;;;;;;12.98;2.20;;;12.20;99.90;;;;;;5024829;28;20127;-46
2022/11/02 02:37:27;;;;;;;13.40;2.40;;;12.10;99.90;;;;;;5052224;28;20053;-44
2022/11/02 02:39:57;;;;;;;13.85;1.80;;;12.10;99.90;;;;;;5049284;28;20148;-44
2022/11/02 02:42:25;;;;;;;10.30;1.55;;;12.00;99.90;;;;;;5051101;28;20078;-46
2022/11/02 02:44:58;;;;;;;9.82;1.60;;;12.00;99.90;;;;;;5051359;28;20081;-44
2022/11/02 02:47:26;;;;;;;6.22;1.15;;;12.00;99.90;;;;;;5052586;28;20053;-48
2022/11/02 02:49:55;;;;;;;7.50;1.35;;;11.90;99.90;;;;;;5051199;28;20076;-45
2022/11/02 02:52:22;;;;;;;7.30;1.20;;;11.90;99.90;;;;;;5050429;28;20107;-45
2022/11/02 02:54:49;;;;;;;8.18;1.27;;;11.80;99.90;;;;;;5051480;28;20049;-45
2022/11/02 02:57:17;;;;;;;6.35;1.30;;;11.80;99.90;;;;;;5025068;28;20049;-45
2022/11/02 02:59:44;;;;;;;6.15;1.40;;;11.80;99.90;;;;;;5033321;28;20099;-45
2022/11/02 03:02:16;;;;;;;7.80;1.38;;;11.70;99.90;;;;;;5030858;28;20489;-47
2022/11/02 03:04:42;;;;;;;8.98;1.88;;;11.80;99.90;;;;;;5051213;28;20080;-46
2022/11/02 03:07:09;;;;;;;6.00;1.50;;;11.70;99.90;;;;;;5050881;28;20128;-45
2022/11/02 03:09:38;;;;;;;10.18;1.70;;;11.70;99.90;;;;;;5051287;28;20079;-45
2022/11/02 03:12:16;;;;;;;7.47;1.95;;;11.70;99.90;;;;;;5050223;28;20481;-46
2022/11/02 03:14:47;;;;;;;12.63;1.50;;;11.70;99.90;;;;;;5051837;28;20080;-47
2022/11/02 03:17:17;;;;;;;10.30;1.52;;;11.70;99.90;;;;;;5050772;28;20064;-44
2022/11/02 03:19:49;;;;;;;10.23;2.15;;;11.60;99.90;;;;;;5046683;28;20045;-46
2022/11/02 03:22:21;;;;;;;9.48;1.92;;;11.60;99.90;;;;;;5032295;28;20056;-46
2022/11/02 03:24:49;;;;;;;11.55;1.65;;;11.50;99.90;;;;;;5028114;28;20041;-46
2022/11/02 03:27:18;;;;;;;9.13;1.45;;;11.60;99.90;;;;;;5050360;28;20059;-45
2022/11/02 03:29:49;;;;;;;5.68;1.15;;;11.50;99.90;;;;;;5050656;28;20080;-47
2022/11/02 03:32:20;;;;;;;5.63;1.65;;;11.40;99.90;;;;;;5032964;28;20425;-45
2022/11/02 03:34:49;;;;;;;8.25;1.30;;;11.40;99.90;;;;;;5050624;28;20049;-45
2022/11/02 03:37:17;;;;;;;5.28;1.42;;;11.30;99.90;;;;;;5034004;28;20103;-47
2022/11/02 03:39:45;;;;;;;7.75;1.23;;;11.30;99.90;;;;;;5023166;28;20042;-47
2022/11/02 03:42:13;;;;;;;10.55;1.13;;;11.30;99.90;;;;;;5041234;28;20056;-45
2022/11/02 03:44:40;;;;;;;7.93;1.20;;;11.20;99.90;;;;;;5051024;28;20114;-46
2022/11/02 03:47:08;;;;;;;7.32;1.35;;;11.20;99.90;;;;;;5051484;28;20179;-45
2022/11/02 03:49:36;;;;;;;10.50;1.33;;;11.20;99.90;;;;;;5032455;28;20057;-43
2022/11/02 03:52:05;;;;;;;11.02;1.27;;;11.10;99.90;;;;;;5050446;28;20088;-44
2022/11/02 03:54:39;;;;;;;10.10;1.92;;;11.20;99.90;;;;;;5050777;28;20052;-45
2022/11/02 03:57:06;;;;;;;9.95;1.77;;;11.10;99.90;;;;;;5035929;28;20045;-46
2022/11/02 03:59:33;;;;;;;12.35;1.77;;;11.10;99.90;;;;;;5049539;28;20382;-44
2022/11/02 04:02:00;;;;;;;9.82;1.73;;;11.20;99.90;;;;;;5033412;28;20086;-45
2022/11/02 04:04:26;;;;;;;10.32;1.70;;;11.10;99.90;;;;;;5051575;28;20080;-42
2022/11/02 04:06:55;;;;;;;7.93;1.63;;;11.10;99.90;;;;;;5033287;28;20083;-44
2022/11/02 04:09:21;;;;;;;9.73;1.60;;;11.20;99.90;;;;;;5044588;28;20095;-44
2022/11/02 04:14:38;;;;;;;11.32;2.10;;;11.20;99.90;;;;;;5049227;28;20481;-44
2022/11/02 04:19:50;;;;;;;7.13;1.10;;;11.10;99.90;;;;;;5048445;28;20136;-46
2022/11/02 04:25:20;;;;;;;7.35;1.50;;;11.10;99.90;;;;;;5047355;28;20061;-47
2022/11/02 04:27:48;;;;;;;7.10;1.35;;;11.20;99.90;;;;;;5047906;28;20378;-46
2022/11/02 04:30:15;;;;;;;12.07;1.60;;;11.10;99.90;;;;;;5034822;28;20048;-46
2022/11/02 04:35:27;;;;;;;8.40;1.48;;;11.10;99.90;;;;;;5053339;28;20404;-43
2022/11/02 04:40:43;;;;;;;9.73;1.63;;;11.20;99.90;;;;;;5050762;28;20048;-43
2022/11/02 04:43:09;;;;;;;11.38;1.75;;;11.10;99.90;;;;;;5052114;28;20084;-45
2022/11/02 04:45:36;;;;;;;8.65;1.60;;;11.20;99.90;;;;;;5033959;28;20048;-44
2022/11/02 04:48:04;;;;;;;11.73;2.00;;;11.20;99.90;;;;;;5031664;28;20118;-44
2022/11/02 04:50:30;;;;;;;8.63;1.80;;;11.20;99.90;;;;;;5050160;28;20501;-43
2022/11/02 04:52:59;;;;;;;11.60;2.03;;;11.20;99.90;;;;;;5026528;28;20138;-44
2022/11/02 04:55:25;;;;;;;13.25;1.98;;;11.20;99.90;;;;;;5032582;28;20563;-44
2022/11/02 04:57:52;;;;;;;9.85;1.60;;;11.20;99.90;;;;;;5035282;28;20077;-45
2022/11/02 05:00:20;;;;;;;12.55;1.70;;;11.20;99.90;;;;;;5030346;28;20547;-44
2022/11/02 05:02:47;;;;;;;14.95;2.08;;;11.20;99.90;;;;;;5032299;28;20061;-44
2022/11/02 05:05:14;;;;;;;10.70;2.30;;;11.20;99.90;;;;;;5035363;28;20144;-45
2022/11/02 05:07:41;;;;;;;13.57;2.03;;;11.20;99.90;;;;;;5036245;28;20046;-47
2022/11/02 05:10:09;;;;;;;13.30;2.30;;;11.20;99.90;;;;;;5032209;28;20073;-44
2022/11/02 05:12:36;;;;;;;11.35;1.92;;;11.20;99.90;;;;;;5052941;28;20111;-44
2022/11/02 05:15:03;;;;;;;8.20;1.90;;;11.20;99.90;;;;;;5051053;28;20041;-46
2022/11/02 05:17:30;;;;;;;13.85;2.65;;;11.20;99.90;;;;;;5035500;28;20049;-46
2022/11/02 05:19:57;;;;;;;16.42;2.67;;;11.20;99.90;;;;;;5053024;28;20589;-44
2022/11/02 05:22:24;;;;;;;14.07;2.17;;;11.30;99.90;;;;;;5051597;28;20378;-45
2022/11/02 05:24:51;;;;;;;19.05;2.80;;;11.30;99.90;;;;;;5053641;28;20397;-44
2022/11/02 05:27:19;;;;;;;12.90;2.25;;;11.20;99.90;;;;;;5050626;28;20578;-47
2022/11/02 05:29:45;;;;;;;15.20;2.42;;;11.30;99.90;;;;;;5047872;28;20112;-43
2022/11/02 05:32:12;;;;;;;15.20;2.53;;;11.30;99.90;;;;;;5032205;28;20057;-44
2022/11/02 05:34:39;;;;;;;15.10;2.72;;;11.20;99.90;;;;;;5050587;28;20115;-47
2022/11/02 05:37:06;;;;;;;14.50;2.70;;;11.30;99.90;;;;;;5029564;28;20076;-48
2022/11/02 05:39:32;;;;;;;15.48;2.40;;;11.30;99.90;;;;;;5034889;28;20492;-48
2022/11/02 05:41:59;;;;;;;12.90;2.20;;;11.30;99.90;;;;;;5053346;28;20045;-47
2022/11/02 05:44:27;;;;;;;15.68;3.13;;;11.30;99.90;;;;;;5023085;28;20076;-47
2022/11/02 05:46:54;;;;;;;13.57;2.13;;;11.20;99.90;;;;;;5031788;28;20498;-47
2022/11/02 05:49:21;;;;;;;12.23;3.10;;;11.30;99.90;;;;;;5050657;28;20481;-47
2022/11/02 05:51:48;;;;;;;16.02;2.22;;;11.20;99.90;;;;;;5043773;28;20076;-46
2022/11/02 05:54:15;;;;;;;18.95;3.20;;;11.20;99.90;;;;;;5019381;28;20224;-47
2022/11/02 05:56:41;;;;;;;16.60;2.67;;;11.20;99.90;;;;;;5052042;28;20088;-46
2022/11/02 05:59:09;;;;;;;19.80;3.05;;;11.20;99.90;;;;;;5035876;28;20056;-44
2022/11/02 06:01:37;;;;;;;16.75;2.60;;;11.20;99.90;;;;;;5052463;28;20207;-44
2022/11/02 06:04:04;;;;;;;13.27;2.08;;;11.20;99.90;;;;;;5022950;28;20148;-46
2022/11/02 06:06:32;;;;;;;14.40;2.97;;;11.20;99.90;;;;;;5023317;28;20489;-46
2022/11/02 06:08:58;;;;;;;18.48;2.83;;;11.10;99.90;;;;;;5026524;28;20635;-47
2022/11/02 06:11:25;;;;;;;18.10;2.97;;;11.20;99.90;;;;;;5045777;28;20049;-43
2022/11/02 06:13:52;;;;;;;15.07;2.63;;;11.10;99.90;;;;;;5051483;28;20080;-44
2022/11/02 06:16:19;;;;;;;17.13;2.75;;;11.10;99.90;;;;;;5052623;28;20095;-44
2022/11/02 06:18:47;;;;;;;13.63;2.85;;;11.10;99.90;;;;;;5050737;28;20481;-45
2022/11/02 06:21:17;;;;;;;20.05;3.00;;;11.10;99.90;;;;;;5051347;28;20044;-46
2022/11/02 06:23:43;;;;;;;18.52;3.17;;;11.10;99.90;;;;;;5010902;28;20081;-43
2022/11/02 06:26:11;;;;;;;14.82;2.60;;;11.10;99.90;;;;;;5012585;28;20054;-48
2022/11/02 06:28:38;;;;;;;14.70;2.97;;;11.10;99.90;;;;;;5008315;28;20064;-47
2022/11/02 06:31:05;;;;;;;17.75;3.05;;;11.00;99.90;;;;;;5030812;28;20053;-47
2022/11/02 06:33:32;;;;;;;14.95;2.60;;;11.00;99.90;;;;;;5012831;28;20062;-51
2022/11/02 06:36:00;;;;;;;15.38;2.63;;;11.00;99.90;;;;;;5027476;28;20080;-49
2022/11/02 06:38:27;;;;;;;21.15;3.55;;;11.00;99.90;;;;;;5032170;28;20139;-48
2022/11/02 06:40:55;;;;;;;18.67;3.20;;;11.00;99.90;;;;;;5029184;28;20048;-47
2022/11/02 06:43:21;;;;;;;21.35;3.22;;;10.90;99.90;;;;;;5033215;28;20045;-50
2022/11/02 06:45:48;;;;;;;16.13;3.15;;;11.00;99.90;;;;;;4998468;28;20085;-47
2022/11/02 06:48:15;;;;;;;12.75;2.70;;;11.00;99.90;;;;;;5025530;28;20132;-50
2022/11/02 06:50:42;;;;;;;18.33;3.33;;;11.00;99.90;;;;;;5032965;28;20081;-46
2022/11/02 06:53:10;;;;;;;20.25;2.92;;;11.00;99.90;;;;;;5014026;28;20140;-47
2022/11/02 06:55:37;;;;;;;12.40;2.70;;;11.10;99.90;;;;;;5014185;28;20050;-43
2022/11/02 06:58:03;;;;;;;16.77;3.22;;;11.10;99.90;;;;;;5031747;28;20139;-46
2022/11/02 07:00:30;;;;;;;19.33;2.65;;;11.10;99.90;;;;;;5029533;28;20103;-51
2022/11/02 07:03:00;;;;;;;17.33;3.25;;;11.00;99.90;;;;;;5013170;28;20501;-46
2022/11/02 07:05:27;;;;;;;20.55;3.25;;;11.10;99.90;;;;;;5033109;28;20132;-48
2022/11/02 07:07:54;;;;;;;20.83;4.00;;;11.10;99.90;;;;;;5032913;28;20151;-50
2022/11/02 07:10:22;;;;;;;18.52;3.35;;;11.20;99.90;;;;;;5032602;28;20053;-46
2022/11/02 07:12:51;;;;;;;17.02;2.78;;;11.30;99.90;;;;;;5015459;28;20108;-45
2022/11/02 07:15:18;;;;;;;16.30;2.88;;;11.30;99.90;;;;;;5032758;28;20115;-53
2022/11/02 07:17:45;;;;;;;19.35;2.72;;;11.30;99.90;;;;;;5032308;28;20095;-49
2022/11/02 07:20:12;;;;;;;19.00;3.00;;;11.20;99.90;;;;;;5014027;28;20099;-45
2022/11/02 07:22:39;;;;;;;15.93;2.92;;;11.20;99.90;;;;;;5032398;28;20536;-46
2022/11/02 07:25:06;;;;;;;21.70;2.80;;;11.20;99.90;;;;;;5032469;28;20061;-45
2022/11/02 07:27:39;;;;;;;25.73;3.85;;;11.20;99.90;;;;;;5032803;28;20111;-46
2022/11/02 07:30:07;;;;;;;20.90;3.13;;;11.30;99.90;;;;;;5032713;28;20050;-48
2022/11/02 07:32:40;;;;;;;15.88;2.90;;;11.20;99.90;;;;;;5015278;28;20498;-50
2022/11/02 07:35:07;;;;;;;19.05;3.20;;;11.20;99.90;;;;;;5025784;28;20128;-47
2022/11/02 07:37:34;;;;;;;16.10;2.33;;;11.20;99.90;;;;;;5034931;28;20107;-46
2022/11/02 07:40:01;;;;;;;11.80;1.92;;;11.20;99.90;;;;;;5034837;28;20446;-47
2022/11/02 07:42:28;;;;;;;16.63;2.15;;;11.20;99.90;;;;;;5052449;28;20056;-49
2022/11/02 07:44:56;;;;;;;9.93;2.35;;;11.20;99.90;;;;;;5034623;28;20084;-53
2022/11/02 07:47:23;;;;;;;14.82;2.00;;;11.20;99.90;;;;;;5051973;28;20094;-52
2022/11/02 07:49:49;;;;;;;10.30;1.92;;;11.20;99.90;;;;;;5052385;28;20049;-51
2022/11/02 07:52:16;;;;;;;15.63;2.72;;;11.20;99.90;;;;;;5051302;28;20134;-53
2022/11/02 07:54:43;;;;;;;22.55;2.55;;;11.20;99.90;;;;;;5051100;28;20099;-49
2022/11/02 07:57:10;;;;;;;10.45;2.20;;;11.20;99.90;;;;;;5052226;28;20107;-52
2022/11/02 07:59:37;;;;;;;17.95;3.38;;;11.30;99.90;;;;;;5052319;28;20049;-50
2022/11/02 08:02:05;;;;;;;19.63;3.15;;;11.30;99.90;;;;;;5033543;28;20127;-49
2022/11/02 08:04:31;;;;;;;17.05;2.30;;;11.30;99.90;;;;;;5054163;28;20449;-50
2022/11/02 08:06:58;;;;;;;19.27;2.38;;;11.30;99.90;;;;;;5055000;28;20596;-48
2022/11/02 08:09:25;;;;;;;17.92;2.60;;;11.30;99.90;;;;;;5056015;28;20075;-46
2022/11/02 08:11:52;;;;;;;14.85;2.33;;;11.30;99.90;;;;;;5056365;28;20056;-50
2022/11/02 08:14:19;;;;;;;21.70;2.92;;;11.30;99.90;;;;;;5056330;28;20052;-47
2022/11/02 08:16:47;;;;;;;14.80;2.40;;;11.30;99.90;;;;;;5055777;28;20048;-51
2022/11/02 08:19:15;;;;;;;14.85;2.78;;;11.40;99.90;;;;;;5038194;28;20049;-46
2022/11/02 08:21:41;;;;;;;18.02;2.50;;;11.40;99.90;;;;;;5055628;28;20089;-49
2022/11/02 08:24:08;;;;;;;14.13;2.30;;;11.40;99.90;;;;;;5037476;28;20114;-46
2022/11/02 08:26:35;;;;;;;14.20;2.65;;;11.50;99.90;;;;;;5056136;28;20099;-45
2022/11/02 08:29:02;;;;;;;22.30;2.78;;;11.50;99.90;;;;;;5038210;28;20096;-46
2022/11/02 08:31:29;;;;;;;17.13;2.53;;;11.60;99.90;;;;;;5038339;28;20110;-45
2022/11/02 08:33:57;;;;;;;19.48;2.47;;;11.80;99.90;;;;;;5037644;28;20045;-45
2022/11/02 08:36:25;;;;;;;17.52;2.83;;;11.80;99.90;;;;;;5055488;28;20049;-47
2022/11/02 08:38:52;;;;;;;15.90;2.60;;;11.90;99.90;;;;;;5054715;28;20088;-46
2022/11/02 08:41:19;;;;;;;22.95;2.20;;;12.00;99.90;;;;;;5034311;28;20481;-47
2022/11/02 08:43:46;;;;;;;17.80;2.20;;;12.00;99.90;;;;;;5035607;28;20061;-47
2022/11/02 08:46:13;;;;;;;15.68;2.15;;;12.10;99.90;;;;;;5018598;28;20108;-47
2022/11/02 08:48:40;;;;;;;12.65;2.20;;;12.20;99.90;;;;;;5055441;28;20045;-45
2022/11/02 08:51:07;;;;;;;16.67;1.88;;;12.20;99.90;;;;;;5037287;28;20554;-50
2022/11/02 08:53:36;;;;;;;13.85;2.40;;;12.30;99.90;;;;;;5055385;28;20051;-47
2022/11/02 08:56:02;;;;;;;14.90;2.08;;;12.40;99.90;;;;;;5054432;28;20111;-46
2022/11/02 08:58:29;;;;;;;13.57;2.35;;;12.40;99.90;;;;;;5037710;28;20085;-47
2022/11/02 09:00:56;;;;;;;10.15;2.08;;;12.50;99.90;;;;;;5037465;28;20477;-45
2022/11/02 09:03:23;;;;;;;16.38;1.85;;;12.60;99.90;;;;;;5037208;28;20053;-45
2022/11/02 09:05:50;;;;;;;10.95;1.95;;;12.60;99.90;;;;;;5055014;28;20048;-45
2022/11/02 09:08:17;;;;;;;8.70;1.40;;;12.70;99.90;;;;;;5054545;28;20136;-47
2022/11/02 09:10:46;;;;;;;8.70;1.40;;;12.70;99.90;;;;;;5054769;28;20049;-45
2022/11/02 09:13:14;;;;;;;10.60;2.25;;;12.80;99.90;;;;;;5036435;28;20049;-47
2022/11/02 09:15:41;;;;;;;13.95;1.50;;;12.80;99.90;;;;;;5054421;28;20048;-46
2022/11/02 09:18:08;;;;;;;13.63;2.05;;;12.90;99.90;;;;;;5037091;28;20088;-45
2022/11/02 09:20:35;;;;;;;9.93;1.42;;;13.00;99.90;;;;;;5037042;28;20520;-46
2022/11/02 09:23:01;;;;;;;12.10;1.80;;;13.00;99.90;;;;;;5035550;28;20755;-46
2022/11/02 09:25:28;;;;;;;8.18;1.60;;;13.00;99.90;;;;;;5037233;28;20106;-46
2022/11/02 09:27:57;;;;;;;10.07;1.48;;;13.10;99.90;;;;;;5054734;28;20057;-46
2022/11/02 09:30:24;;;;;;;11.63;2.10;;;13.10;99.90;;;;;;5054780;28;20188;-45
2022/11/02 09:32:54;;;;;;;10.40;1.63;;;13.20;99.90;;;;;;5054655;28;20099;-44
2022/11/02 09:35:21;;;;;;;10.00;1.60;;;13.20;99.90;;;;;;5037340;28;20412;-45
2022/11/02 09:37:48;;;;;;;7.15;1.40;;;13.30;99.90;;;;;;5043328;28;20037;-46
2022/11/02 09:40:15;;;;;;;9.90;2.08;;;13.30;99.90;;;;;;5054480;28;20085;-47
2022/11/02 09:42:44;;;;;;;8.73;1.70;;;13.40;99.90;;;;;;5054544;28;20053;-49
2022/11/02 09:45:14;;;;;;;15.25;1.85;;;13.40;99.90;;;;;;5054611;28;20076;-49
2022/11/02 09:47:43;;;;;;;14.05;1.85;;;13.40;99.90;;;;;;5036693;28;20041;-45
2022/11/02 09:50:12;;;;;;;14.48;1.75;;;13.50;99.90;;;;;;5036494;28;20083;-45
2022/11/02 09:52:39;;;;;;;10.63;2.40;;;13.50;99.90;;;;;;5036793;28;20136;-48
2022/11/02 09:55:10;;;;;;;10.25;2.03;;;13.50;99.90;;;;;;5052476;28;20628;-46
2022/11/02 09:57:37;;;;;;;16.63;2.35;;;13.60;99.90;;;;;;5036328;28;20099;-48
2022/11/02 10:00:05;;;;;;;16.02;1.88;;;13.60;99.90;;;;;;5036394;28;20091;-47
2022/11/02 10:02:38;;;;;;;13.80;2.20;;;13.70;99.90;;;;;;5053834;28;20562;-45
2022/11/02 10:05:12;;;;;;;11.60;1.50;;;13.70;99.90;;;;;;5053383;28;20053;-45
2022/11/02 10:08:02;;;;;;;12.95;1.67;;;13.80;99.90;;;;;;5036459;28;20098;-47
2022/11/02 10:10:32;;;;;;;14.57;2.15;;;13.80;99.90;;;;;;5036234;28;20060;-43
2022/11/02 10:13:10;;;;;;;16.98;2.20;;;13.90;99.90;;;;;;5053705;28;20088;-44
2022/11/02 10:15:38;;;;;;;14.82;2.20;;;13.90;99.90;;;;;;5034698;28;20056;-46
2022/11/02 10:18:06;;;;;;;17.15;2.83;;;13.90;99.90;;;;;;5036126;28;20084;-45
2022/11/02 10:20:34;;;;;;;12.82;2.00;;;13.90;99.90;;;;;;5053699;28;20457;-46
2022/11/02 10:23:03;;;;;;;19.30;2.80;;;13.90;99.90;;;;;;5052834;28;20481;-47
2022/11/02 10:25:29;;;;;;;14.02;2.63;;;14.00;99.90;;;;;;5035955;28;20067;-43
2022/11/02 10:28:03;;;;;;;29.35;3.45;;;13.90;99.90;;;;;;5034993;28;20096;-44
2022/11/02 10:30:29;;;;;;;16.65;2.70;;;13.90;99.90;;;;;;5052554;28;20080;-43
2022/11/02 10:32:56;;;;;;;13.27;2.05;;;13.80;99.90;;;;;;5053472;28;20056;-43
2022/11/02 10:35:27;;;;;;;14.95;2.40;;;13.70;99.90;;;;;;5053313;28;20103;-43
2022/11/02 10:38:02;;;;;;;12.77;2.28;;;13.60;99.90;;;;;;5035763;28;20547;-43
2022/11/02 10:40:44;;;;;;;14.05;2.33;;;13.50;99.90;;;;;;5035919;28;20064;-44
2022/11/02 10:43:16;;;;;;;14.43;2.03;;;13.50;99.90;;;;;;5053532;28;20087;-42
2022/11/02 10:45:53;;;;;;;13.18;2.30;;;13.40;99.90;;;;;;5034813;28;20135;-44
2022/11/02 10:48:28;;;;;;;13.90;2.10;;;13.40;99.90;;;;;;5035560;28;20056;-44
2022/11/02 10:51:00;;;;;;;15.20;2.33;;;13.50;99.90;;;;;;5035339;28;20049;-42
2022/11/02 10:53:27;;;;;;;13.55;2.08;;;13.60;99.90;;;;;;5029769;28;20153;-44
2022/11/02 10:55:57;;;;;;;11.43;1.77;;;13.60;99.90;;;;;;5033097;28;20096;-43
2022/11/02 10:58:24;;;;;;;13.50;1.60;;;13.70;99.90;;;;;;5033494;28;20111;-43
2022/11/02 11:00:52;;;;;;;16.73;2.47;;;13.80;99.90;;;;;;5032997;28;20053;-43
2022/11/02 11:03:19;;;;;;;14.75;1.92;;;13.90;99.90;;;;;;5050258;28;20107;-42
2022/11/02 11:05:58;;;;;;;14.10;1.85;;;14.00;99.90;;;;;;5035533;28;20051;-43
2022/11/02 11:08:35;;;;;;;11.45;2.38;;;14.20;99.90;;;;;;5053128;28;20067;-42
2022/11/02 11:11:13;;;;;;;15.27;2.30;;;14.30;99.90;;;;;;5035136;28;20455;-44
2022/11/02 11:13:40;;;;;;;13.95;1.85;;;14.20;99.90;;;;;;5035159;28;20102;-42
2022/11/02 11:16:07;;;;;;;14.07;1.80;;;14.10;99.90;;;;;;5033706;28;20083;-43
2022/11/02 11:18:34;;;;;;;13.75;2.15;;;13.90;99.90;;;;;;5052802;28;20056;-44
2022/11/02 11:21:02;;;;;;;13.05;1.98;;;13.80;99.90;;;;;;5034979;28;20218;-41
2022/11/02 11:23:29;;;;;;;11.30;1.88;;;13.70;99.90;;;;;;5052220;28;20068;-43
2022/11/02 11:25:58;;;;;;;13.18;2.42;;;13.60;99.90;;;;;;5035012;28;20053;-42
2022/11/02 11:28:27;;;;;;;10.77;1.73;;;13.60;99.90;;;;;;5051407;28;20559;-46
2022/11/02 11:31:08;;;;;;;15.82;2.30;;;13.50;99.90;;;;;;5034856;28;20099;-42
2022/11/02 11:33:41;;;;;;;;;;;13.50;99.90;;;;;;5035614;28;20045;-42
2022/11/02 11:36:09;;;;;;;15.80;1.92;;;13.50;99.90;;;;;;5034761;28;19921;-43
2022/11/02 11:38:36;;;;;;;13.30;2.08;;;13.50;99.90;;;;;;5052399;28;20053;-45
2022/11/02 11:41:03;;;;;;;16.30;2.28;;;13.60;99.90;;;;;;5034878;28;20134;-45
2022/11/02 11:43:33;;;;;;;12.25;2.03;;;13.70;99.90;;;;;;5032871;28;20061;-44
2022/11/02 11:46:01;;;;;;;13.73;2.10;;;13.80;99.90;;;;;;5033970;28;20107;-43
2022/11/02 11:48:32;;;;;;;13.07;2.00;;;14.00;99.90;;;;;;5034961;28;20084;-42
2022/11/02 11:50:59;;;;;;;11.38;1.77;;;14.10;99.90;;;;;;5052367;28;20551;-44
2022/11/02 11:53:27;;;;;;;14.43;1.58;;;14.30;99.90;;;;;;5052205;28;20092;-43
2022/11/02 11:55:54;;;;;;;14.50;2.55;;;14.40;99.90;;;;;;5051897;28;20048;-44
2022/11/02 11:58:22;;;;;;;11.40;2.00;;;14.50;99.90;;;;;;5051608;28;20462;-46
2022/11/02 12:01:08;;;;;;;9.95;1.50;;;14.70;99.90;;;;;;5052270;28;20099;-44
2022/11/02 12:03:49;;;;;;;16.00;2.10;;;14.80;99.90;;;;;;5052223;28;20049;-43
2022/11/02 12:06:20;;;;;;;10.60;2.05;;;14.80;99.90;;;;;;5052125;28;20048;-43
2022/11/02 12:08:51;;;;;;;10.23;1.90;;;14.80;99.90;;;;;;5052224;28;20048;-44
2022/11/02 12:11:26;;;;;;;14.30;2.20;;;14.80;99.90;;;;;;5030801;28;20132;-45
2022/11/02 12:14:09;;;;;;;11.88;1.60;;;14.70;99.90;;;;;;5035759;28;20057;-43
2022/11/02 12:16:46;;;;;;;15.75;2.67;;;14.80;99.90;;;;;;5041747;28;20077;-43
2022/11/02 12:19:20;;;;;;;9.98;1.63;;;14.90;99.90;;;;;;5041786;28;20095;-44
2022/11/02 12:21:55;;;;;;;11.02;1.80;;;15.00;99.90;;;;;;5034440;28;20049;-43
2022/11/02 12:24:56;;;;;;;12.63;1.65;;;15.10;99.90;;;;;;5051945;28;20524;-45
2022/11/02 12:27:29;;;;;;;10.15;1.88;;;15.20;99.90;;;;;;5014530;28;20053;-47
2022/11/02 12:30:11;;;;;;;13.80;1.85;;;15.10;99.90;;;;;;5042726;28;20046;-43
2022/11/02 12:33:06;;;;;;;9.70;1.63;;;15.10;99.90;;;;;;5032369;28;20481;-44
2022/11/02 12:35:42;;;;;;;10.65;1.90;;;15.10;99.90;;;;;;5025324;28;20048;-42
2022/11/02 12:38:44;;;;;;;10.70;1.88;;;15.10;99.90;;;;;;5034319;28;20440;-43
2022/11/02 12:41:12;;;;;;;10.43;1.97;;;15.10;99.90;;;;;;5013240;28;20144;-43
2022/11/02 12:43:40;;;;;;;8.85;1.60;;;15.10;99.90;;;;;;5050973;28;20311;-44
2022/11/02 12:46:14;;;;;;;11.30;2.05;;;15.10;99.90;;;;;;5051761;28;20041;-42
2022/11/02 12:48:45;;;;;;;14.90;2.35;;;15.20;99.90;;;;;;5049302;28;20516;-44
2022/11/02 12:51:12;;;;;;;13.33;2.20;;;15.30;99.90;;;;;;5052721;28;20095;-43
2022/11/02 12:53:45;;;;;;;10.75;1.70;;;15.40;99.90;;;;;;5037145;28;20053;-43
2022/11/02 12:56:16;;;;;;;14.07;2.00;;;15.30;99.90;;;;;;5055135;28;20045;-44
2022/11/02 12:58:43;;;;;;;14.18;2.00;;;15.30;99.90;;;;;;5037637;28;20079;-43
2022/11/02 13:01:13;;;;;;;14.07;2.25;;;15.30;99.90;;;;;;5037528;28;20109;-42